createdAt,value
2018-10-05T00:01:24.420Z,79.46
2018-10-05T00:03:52.700Z,80.60
2018-10-05T00:06:21.011Z,80.28
2018-10-05T00:08:49.287Z,81.21
2018-10-05T00:11:17.678Z,81.27
2018-10-05T00:13:45.961Z,80.74
2018-10-05T00:16:14.247Z,82.25
2018-10-05T00:18:43.048Z,80.83
2018-10-05T00:21:11.356Z,78.42
2018-10-05T00:23:39.659Z,77.25
2018-10-05T00:26:08.391Z,75.38
2018-10-05T00:28:37.583Z,74.61
2018-10-05T00:31:06.387Z,74.01
2018-10-05T00:33:34.662Z,74.12
2018-10-05T00:36:02.963Z,73.22
2018-10-05T00:38:31.250Z,73.38
2018-10-05T00:41:01.390Z,74.16
2018-10-05T00:43:30.628Z,75.46
2018-10-05T00:45:59.024Z,75.38
2018-10-05T00:48:27.316Z,76.47
2018-10-05T00:50:55.616Z,77.20
2018-10-05T00:53:23.922Z,76.98
2018-10-05T00:55:52.244Z,77.18
2018-10-05T00:58:20.700Z,76.86
2018-10-05T01:00:49.356Z,78.15
2018-10-05T01:03:17.626Z,76.96
2018-10-05T01:05:46.068Z,78.58
2018-10-05T01:08:14.329Z,77.85
2018-10-05T01:10:42.619Z,77.92
2018-10-05T01:13:11.551Z,77.86
2018-10-05T01:15:39.828Z,77.30
2018-10-05T01:18:08.091Z,77.08
2018-10-05T01:20:36.392Z,77.16
2018-10-05T01:23:04.659Z,77.27
2018-10-05T01:25:32.951Z,76.44
2018-10-05T01:28:01.252Z,76.75
2018-10-05T01:30:29.555Z,77.48
2018-10-05T01:32:57.823Z,77.56
2018-10-05T01:35:26.111Z,78.08
2018-10-05T01:37:54.399Z,78.79
2018-10-05T01:40:22.693Z,80.03
2018-10-05T01:42:50.955Z,80.29
2018-10-05T01:45:19.226Z,80.18
2018-10-05T01:47:47.507Z,80.73
2018-10-05T01:50:15.775Z,80.52
2018-10-05T01:52:44.059Z,81.24
2018-10-05T01:55:12.394Z,81.51
2018-10-05T01:57:40.676Z,82.18
2018-10-05T02:00:08.996Z,82.45
2018-10-05T02:02:37.358Z,81.41
2018-10-05T02:05:05.596Z,79.86
2018-10-05T02:07:33.895Z,80.10
2018-10-05T02:10:02.175Z,78.33
2018-10-05T02:12:30.476Z,77.52
2018-10-05T02:14:58.756Z,77.12
2018-10-05T02:17:27.056Z,76.60
2018-10-05T02:19:55.324Z,76.26
2018-10-05T02:22:23.622Z,76.02
2018-10-05T02:24:52.107Z,75.97
2018-10-05T02:27:20.407Z,75.98
2018-10-05T02:29:48.695Z,75.57
2018-10-05T02:32:17.000Z,75.79
2018-10-05T02:34:45.276Z,76.11
2018-10-05T02:37:13.595Z,75.61
2018-10-05T02:39:42.326Z,76.33
2018-10-05T02:42:10.628Z,76.29
2018-10-05T02:44:38.908Z,76.56
2018-10-05T02:47:07.211Z,77.45
2018-10-05T02:49:35.484Z,78.60
2018-10-05T02:52:03.803Z,79.15
2018-10-05T02:54:32.076Z,80.41
2018-10-05T02:57:00.367Z,80.12
2018-10-05T02:59:28.660Z,81.07
2018-10-05T03:02:08.139Z,81.68
2018-10-05T03:04:36.420Z,82.17
2018-10-05T03:07:04.715Z,82.90
2018-10-05T03:09:32.987Z,82.67
2018-10-05T03:12:01.996Z,83.56
2018-10-05T03:14:30.318Z,83.36
2018-10-05T03:16:58.559Z,83.89
2018-10-05T03:19:26.816Z,83.84
2018-10-05T03:21:55.116Z,83.02
2018-10-05T03:24:23.383Z,84.58
2018-10-05T03:26:51.794Z,84.59
2018-10-05T03:29:20.071Z,85.75
2018-10-05T03:31:48.366Z,84.97
2018-10-05T03:34:16.644Z,85.04
2018-10-05T03:36:44.911Z,85.23
2018-10-05T03:39:13.207Z,85.98
2018-10-05T03:41:41.475Z,85.23
2018-10-05T03:44:09.775Z,85.14
2018-10-05T03:46:38.075Z,86.03
2018-10-05T03:49:06.679Z,85.62
2018-10-05T03:51:35.108Z,85.04
2018-10-05T03:54:03.419Z,85.55
2018-10-05T03:56:31.728Z,85.77
2018-10-05T03:59:01.059Z,85.24
2018-10-05T04:01:29.350Z,85.75
2018-10-05T04:03:57.635Z,85.92
2018-10-05T04:06:25.911Z,85.51
2018-10-05T04:08:54.499Z,85.95
2018-10-05T04:11:22.764Z,86.18
2018-10-05T04:13:51.138Z,85.57
2018-10-05T04:16:19.431Z,84.91
2018-10-05T04:18:47.743Z,85.50
2018-10-05T04:21:16.066Z,86.21
2018-10-05T04:23:44.380Z,86.99
2018-10-05T04:26:12.702Z,86.85
2018-10-05T04:28:41.012Z,86.83
2018-10-05T04:31:09.355Z,86.06
2018-10-05T04:33:37.674Z,85.77
2018-10-05T04:36:06.040Z,83.37
2018-10-05T04:38:34.351Z,83.34
2018-10-05T04:41:02.655Z,81.89
2018-10-05T04:43:30.951Z,82.02
2018-10-05T04:45:59.245Z,82.81
2018-10-05T04:48:27.568Z,84.12
2018-10-05T04:50:55.873Z,85.52
2018-10-05T04:53:24.169Z,85.90
2018-10-05T04:55:52.491Z,85.99
2018-10-05T04:58:20.810Z,85.65
2018-10-05T05:00:49.103Z,86.32
2018-10-05T05:03:17.400Z,86.12
2018-10-05T05:05:45.713Z,86.85
2018-10-05T05:08:14.010Z,86.21
2018-10-05T05:10:42.317Z,86.89
2018-10-05T05:13:10.624Z,86.85
2018-10-05T05:15:39.046Z,87.97
2018-10-05T05:18:07.362Z,86.27
2018-10-05T05:20:35.678Z,83.79
2018-10-05T05:23:04.464Z,81.87
2018-10-05T05:25:32.955Z,79.27
2018-10-05T05:28:01.599Z,78.78
2018-10-05T05:30:29.946Z,78.58
2018-10-05T05:32:58.546Z,78.71
2018-10-05T05:35:26.852Z,78.52
2018-10-05T05:37:55.156Z,77.78
2018-10-05T05:40:23.623Z,77.99
2018-10-05T05:42:52.200Z,76.24
2018-10-05T05:45:20.991Z,76.56
2018-10-05T05:47:49.283Z,76.73
2018-10-05T05:50:17.613Z,76.58
2018-10-05T05:52:45.895Z,76.41
2018-10-05T05:55:14.187Z,76.37
2018-10-05T05:57:42.595Z,76.92
2018-10-05T06:00:10.899Z,76.15
2018-10-05T06:02:39.216Z,76.13
2018-10-05T06:05:07.535Z,75.66
2018-10-05T06:07:36.183Z,75.79
2018-10-05T06:10:04.584Z,76.04
2018-10-05T06:12:32.898Z,75.40
2018-10-05T06:15:01.564Z,75.06
2018-10-05T06:17:29.877Z,74.80
2018-10-05T06:19:58.187Z,73.77
2018-10-05T06:22:26.827Z,73.43
2018-10-05T06:24:54.956Z,72.73
2018-10-05T06:27:23.307Z,73.36
2018-10-05T06:29:51.590Z,73.14
2018-10-05T06:32:19.884Z,73.11
2018-10-05T06:34:48.191Z,74.00
2018-10-05T06:37:16.515Z,72.52
2018-10-05T06:39:45.131Z,72.49
2018-10-05T06:42:13.538Z,71.74
2018-10-05T06:44:41.776Z,65.06
2018-10-05T06:47:10.095Z,63.39
2018-10-05T06:49:38.400Z,57.09
2018-10-05T06:52:06.540Z,46.97
2018-10-05T06:54:34.831Z,41.89
2018-10-05T06:57:03.149Z,42.51
2018-10-05T06:59:31.434Z,42.80
2018-10-05T07:01:59.860Z,39.06
2018-10-05T07:04:28.058Z,36.81
2018-10-05T07:06:56.374Z,36.33
2018-10-05T07:09:24.743Z,39.48
2018-10-05T07:11:53.072Z,37.16
2018-10-05T07:14:21.362Z,34.00
2018-10-05T07:16:49.683Z,33.78
2018-10-05T07:19:17.986Z,36.84
2018-10-05T07:21:46.496Z,40.34
2018-10-05T07:24:14.791Z,37.59
2018-10-05T07:26:43.375Z,34.45
2018-10-05T07:29:11.676Z,33.19
2018-10-05T07:31:40.020Z,34.95
2018-10-05T07:34:08.362Z,31.03
2018-10-05T07:36:36.755Z,34.30
2018-10-05T07:39:07.683Z,33.90
2018-10-05T07:41:36.002Z,32.57
2018-10-05T07:44:04.315Z,33.16
2018-10-05T07:46:32.626Z,33.72
2018-10-05T07:49:00.910Z,32.51
2018-10-05T07:51:29.223Z,28.91
2018-10-05T07:53:57.508Z,29.24
2018-10-05T07:56:25.827Z,24.92
2018-10-05T07:58:54.130Z,24.58
2018-10-05T08:01:22.436Z,27.15
2018-10-05T08:03:50.794Z,29.34
2018-10-05T08:06:19.091Z,28.53
2018-10-05T08:08:47.399Z,26.65
2018-10-05T08:11:15.719Z,26.22
2018-10-05T08:13:44.047Z,24.93
2018-10-05T08:16:12.339Z,24.81
2018-10-05T08:18:40.667Z,27.77
2018-10-05T08:21:09.280Z,24.49
2018-10-05T08:23:37.818Z,22.59
2018-10-05T08:26:06.991Z,23.97
2018-10-05T08:28:35.323Z,22.13
2018-10-05T08:31:03.626Z,21.49
2018-10-05T08:33:31.955Z,21.93
2018-10-05T08:36:00.255Z,25.11
2018-10-05T08:38:28.602Z,24.58
2018-10-05T08:40:56.923Z,22.35
2018-10-05T08:43:25.248Z,19.04
2018-10-05T08:45:53.592Z,21.18
2018-10-05T08:48:21.935Z,19.67
2018-10-05T08:50:50.265Z,20.68
2018-10-05T08:53:18.574Z,19.54
2018-10-05T08:55:49.899Z,19.84
2018-10-05T08:58:18.239Z,23.27
2018-10-05T09:00:46.541Z,23.89
2018-10-05T09:03:14.887Z,22.46
2018-10-05T09:05:43.248Z,22.39
2018-10-05T09:08:11.615Z,20.42
2018-10-05T09:10:39.946Z,21.83
2018-10-05T09:13:08.267Z,25.95
2018-10-05T09:15:36.563Z,21.85
2018-10-05T09:18:04.954Z,21.56
2018-10-05T09:20:33.474Z,20.27
2018-10-05T09:23:01.891Z,22.53
2018-10-05T09:25:30.182Z,19.63
2018-10-05T09:27:58.710Z,20.55
2018-10-05T09:30:27.011Z,20.64
2018-10-05T09:32:55.595Z,20.36
2018-10-05T09:35:23.915Z,24.23
2018-10-05T09:37:52.713Z,19.98
2018-10-05T09:40:21.019Z,18.46
2018-10-05T09:42:49.355Z,19.08
2018-10-05T09:45:17.699Z,19.09
2018-10-05T09:47:45.998Z,21.06
2018-10-05T09:50:14.827Z,19.22
2018-10-05T09:52:43.186Z,19.84
2018-10-05T09:55:11.462Z,19.12
2018-10-05T09:57:39.991Z,17.01
2018-10-05T10:00:12.544Z,19.39
2018-10-05T10:02:46.052Z,18.20
2018-10-05T10:05:14.344Z,16.79
2018-10-05T10:07:42.655Z,15.79
2018-10-05T10:10:11.146Z,17.75
2018-10-05T10:12:39.426Z,14.95
2018-10-05T10:15:07.687Z,19.47
2018-10-05T10:17:35.970Z,18.00
2018-10-05T10:20:04.266Z,16.11
2018-10-05T10:22:32.575Z,18.35
2018-10-05T10:25:01.356Z,17.63
2018-10-05T10:27:29.684Z,17.67
2018-10-05T10:29:57.955Z,18.32
2018-10-05T10:32:26.496Z,19.12
2018-10-05T10:34:54.762Z,23.84
2018-10-05T10:37:23.048Z,20.85
2018-10-05T10:39:51.376Z,19.93
2018-10-05T10:42:19.611Z,18.42
2018-10-05T10:44:47.983Z,17.54
2018-10-05T10:47:16.403Z,17.36
2018-10-05T10:49:44.712Z,17.28
2018-10-05T10:52:13.131Z,16.13
2018-10-05T10:54:41.450Z,16.29
2018-10-05T10:57:09.753Z,15.90
2018-10-05T10:59:38.110Z,15.53
2018-10-05T11:02:06.392Z,14.95
2018-10-05T11:04:34.829Z,15.67
2018-10-05T11:07:02.995Z,16.89
2018-10-05T11:09:33.030Z,18.31
2018-10-05T11:12:01.308Z,17.05
2018-10-05T11:14:29.582Z,18.89
2018-10-05T11:16:57.882Z,18.92
2018-10-05T11:19:26.116Z,15.91
2018-10-05T11:21:54.414Z,17.08
2018-10-05T11:24:23.190Z,18.07
2018-10-05T11:26:51.462Z,19.30
2018-10-05T11:29:19.890Z,16.77
2018-10-05T11:31:48.150Z,19.71
2018-10-05T11:34:16.873Z,16.47
2018-10-05T11:36:45.135Z,17.20
2018-10-05T11:39:13.435Z,17.90
2018-10-05T11:41:41.702Z,16.98
2018-10-05T11:44:09.983Z,15.47
2018-10-05T11:46:38.258Z,17.77
2018-10-05T11:49:06.731Z,17.03
2018-10-05T11:51:34.995Z,18.43
2018-10-05T11:54:03.302Z,17.19
2018-10-05T11:56:31.563Z,17.07
2018-10-05T11:58:59.859Z,17.07
2018-10-05T12:01:28.131Z,15.78
2018-10-05T12:03:56.443Z,16.28
2018-10-05T12:06:24.706Z,17.90
2018-10-05T12:08:53.007Z,16.84
2018-10-05T12:11:21.295Z,18.26
2018-10-05T12:13:49.640Z,17.09
2018-10-05T12:16:18.151Z,15.92
2018-10-05T12:18:46.655Z,21.02
2018-10-05T12:21:14.947Z,18.86
2018-10-05T12:23:43.206Z,20.04
2018-10-05T12:26:11.516Z,19.56
2018-10-05T12:28:39.782Z,20.22
2018-10-05T12:31:08.063Z,21.63
2018-10-05T12:33:36.366Z,19.44
2018-10-05T12:36:04.707Z,19.71
2018-10-05T12:38:32.999Z,21.10
2018-10-05T12:41:01.522Z,20.25
2018-10-05T12:43:29.799Z,19.95
2018-10-05T12:45:58.582Z,20.60
2018-10-05T12:48:26.847Z,20.66
2018-10-05T12:50:55.138Z,22.89
2018-10-05T12:53:23.896Z,19.55
2018-10-05T12:55:52.192Z,20.20
2018-10-05T12:58:20.719Z,19.51
2018-10-05T13:00:49.003Z,20.18
2018-10-05T13:03:17.254Z,19.30
2018-10-05T13:05:45.575Z,20.67
2018-10-05T13:08:15.443Z,18.26
2018-10-05T13:10:43.733Z,17.91
2018-10-05T13:13:12.012Z,19.56
2018-10-05T13:15:40.290Z,19.04
2018-10-05T13:18:09.020Z,18.90
2018-10-05T13:20:37.332Z,19.49
2018-10-05T13:23:05.631Z,19.68
2018-10-05T13:25:34.858Z,19.36
2018-10-05T13:28:03.133Z,19.64
2018-10-05T13:30:31.462Z,19.76
2018-10-05T13:32:59.731Z,22.87
2018-10-05T13:35:28.252Z,20.17
2018-10-05T13:37:56.556Z,22.90
2018-10-05T13:40:25.012Z,22.59
2018-10-05T13:42:53.316Z,21.90
2018-10-05T13:45:21.578Z,21.11
2018-10-05T13:47:49.898Z,21.55
2018-10-05T13:50:18.179Z,23.49
2018-10-05T13:52:46.462Z,22.48
2018-10-05T13:55:14.726Z,22.89
2018-10-05T13:57:43.023Z,23.15
2018-10-05T14:00:11.312Z,21.59
2018-10-05T14:02:39.701Z,25.04
2018-10-05T14:05:07.995Z,22.61
2018-10-05T14:07:36.686Z,23.75
2018-10-05T14:10:06.259Z,25.03
2018-10-05T14:12:35.910Z,26.92
2018-10-05T14:15:04.246Z,24.44
2018-10-05T14:17:32.539Z,23.51
2018-10-05T14:20:01.306Z,24.04
2018-10-05T14:22:29.587Z,23.95
2018-10-05T14:24:58.499Z,22.56
2018-10-05T14:27:26.839Z,23.38
2018-10-05T14:29:55.136Z,23.96
2018-10-05T14:32:23.454Z,24.68
2018-10-05T14:34:51.753Z,25.47
2018-10-05T14:37:20.065Z,25.16
2018-10-05T14:39:48.343Z,25.63
2018-10-05T14:42:17.153Z,26.11
2018-10-05T14:44:45.415Z,27.55
2018-10-05T14:47:13.695Z,26.84
2018-10-05T14:49:41.975Z,26.49
2018-10-05T14:52:10.880Z,28.27
2018-10-05T14:54:39.139Z,26.96
2018-10-05T14:57:07.489Z,27.21
2018-10-05T14:59:35.714Z,27.47
2018-10-05T15:02:04.028Z,27.12
2018-10-05T15:04:32.299Z,27.77
2018-10-05T15:07:00.657Z,28.60
2018-10-05T15:09:28.905Z,29.58
2018-10-05T15:11:57.380Z,30.90
2018-10-05T15:14:26.266Z,29.74
2018-10-05T15:16:54.562Z,29.98
2018-10-05T15:19:22.844Z,30.83
2018-10-05T15:21:51.114Z,32.09
2018-10-05T15:24:19.396Z,32.49
2018-10-05T15:26:47.683Z,32.82
2018-10-05T15:29:15.959Z,33.30
2018-10-05T15:31:44.252Z,34.51
2018-10-05T15:34:12.523Z,34.64
2018-10-05T15:36:40.898Z,32.54
2018-10-05T15:39:09.703Z,33.24
2018-10-05T15:41:38.439Z,34.29
2018-10-05T15:44:06.955Z,35.60
2018-10-05T15:47:15.810Z,35.93
2018-10-05T15:49:44.431Z,36.98
2018-10-05T15:52:12.809Z,37.65
2018-10-05T15:54:41.027Z,38.12
2018-10-05T15:57:09.380Z,40.01
2018-10-05T15:59:38.029Z,42.49
2018-10-05T16:02:06.366Z,44.39
2018-10-05T16:04:34.642Z,45.78
2018-10-05T16:07:02.939Z,45.77
2018-10-05T16:09:31.300Z,46.08
2018-10-05T16:11:59.592Z,46.10
2018-10-05T16:14:27.931Z,45.24
2018-10-05T16:16:56.239Z,46.05
2018-10-05T16:19:24.531Z,46.33
2018-10-05T16:21:52.787Z,47.32
2018-10-05T16:24:26.040Z,47.83
2018-10-05T16:26:54.307Z,48.25
2018-10-05T16:29:22.606Z,48.83
2018-10-05T16:31:50.866Z,49.48
2018-10-05T16:34:19.180Z,49.58
2018-10-05T16:36:47.555Z,50.91
2018-10-05T16:39:15.855Z,51.26
2018-10-05T16:41:44.138Z,52.05
2018-10-05T16:44:12.682Z,52.93
2018-10-05T16:46:41.088Z,54.16
2018-10-05T16:49:11.235Z,54.53
2018-10-05T16:51:40.098Z,54.73
2018-10-05T16:54:08.547Z,55.14
2018-10-05T16:56:37.686Z,55.11
2018-10-05T16:59:06.343Z,55.96
2018-10-05T17:01:34.776Z,55.75
2018-10-05T17:04:03.276Z,55.79
2018-10-05T17:06:31.711Z,56.92
2018-10-05T17:09:05.622Z,57.19
2018-10-05T17:11:34.929Z,56.70
2018-10-05T17:14:03.322Z,57.65
2018-10-05T17:16:31.686Z,57.80
2018-10-05T17:19:00.095Z,57.74
2018-10-05T17:21:28.375Z,57.64
2018-10-05T17:23:56.634Z,57.84
2018-10-05T17:26:24.911Z,57.76
2018-10-05T17:28:53.185Z,57.71
2018-10-05T17:31:21.476Z,58.17
2018-10-05T17:33:49.762Z,58.14
2018-10-05T17:36:18.056Z,58.81
2018-10-05T17:38:46.342Z,58.52
2018-10-05T17:41:14.639Z,58.87
2018-10-05T17:43:42.920Z,59.06
2018-10-05T17:46:11.289Z,58.35
2018-10-05T17:48:39.835Z,58.83
2018-10-05T17:51:08.127Z,59.10
2018-10-05T17:53:36.968Z,59.79
2018-10-05T17:56:05.336Z,59.60
2018-10-05T17:58:33.612Z,59.60
2018-10-05T18:01:01.912Z,59.39
2018-10-05T18:03:30.187Z,59.74
2018-10-05T18:05:58.466Z,59.67
2018-10-05T18:08:26.778Z,60.17
2018-10-05T18:10:55.023Z,60.18
2018-10-05T18:13:23.291Z,60.46
2018-10-05T18:15:51.592Z,60.54
2018-10-05T18:18:19.858Z,60.86
2018-10-05T18:20:48.160Z,60.77
2018-10-05T18:23:16.951Z,60.88
2018-10-05T18:25:45.552Z,61.29
2018-10-05T18:28:13.811Z,61.52
2018-10-05T18:30:42.109Z,61.20
2018-10-05T18:33:10.677Z,62.65
2018-10-05T18:35:38.970Z,65.52
2018-10-05T18:38:07.250Z,65.62
2018-10-05T18:40:35.544Z,64.99
2018-10-05T18:43:03.822Z,66.93
2018-10-05T18:45:33.260Z,67.79
2018-10-05T18:48:01.572Z,67.90
2018-10-05T18:50:29.879Z,68.38
2018-10-05T18:52:58.146Z,69.51
2018-10-05T18:55:26.474Z,70.01
2018-10-05T18:57:54.799Z,70.86
2018-10-05T19:00:23.181Z,71.27
2018-10-05T19:02:51.374Z,72.12
2018-10-05T19:05:19.682Z,71.67
2018-10-05T19:07:47.958Z,72.16
2018-10-05T19:10:16.255Z,71.35
2018-10-05T19:12:44.527Z,70.59
2018-10-05T19:15:12.814Z,72.02
2018-10-05T19:17:41.102Z,72.02
2018-10-05T19:20:09.411Z,71.65
2018-10-05T19:22:38.176Z,72.23
2018-10-05T19:25:06.496Z,72.11
2018-10-05T19:27:34.767Z,72.24
2018-10-05T19:30:03.061Z,72.91
2018-10-05T19:32:31.353Z,73.16
2018-10-05T19:34:59.634Z,73.39
2018-10-05T19:37:28.007Z,73.87
2018-10-05T19:39:56.316Z,73.59
2018-10-05T19:42:24.629Z,73.96
2018-10-05T19:44:52.891Z,74.25
2018-10-05T19:47:21.247Z,75.10
2018-10-05T19:49:49.508Z,74.88
2018-10-05T19:52:17.788Z,75.28
2018-10-05T19:54:46.058Z,75.18
2018-10-05T19:57:14.372Z,75.18
2018-10-05T19:59:42.656Z,74.99
2018-10-05T20:02:11.058Z,75.07
2018-10-05T20:04:39.271Z,75.05
2018-10-05T20:07:07.591Z,75.82
2018-10-05T20:09:35.863Z,76.05
2018-10-05T20:12:04.176Z,75.49
2018-10-05T20:14:32.480Z,75.65
2018-10-05T20:17:00.802Z,75.34
2018-10-05T20:19:29.068Z,74.70
2018-10-05T20:21:57.364Z,75.25
2018-10-05T20:24:25.672Z,74.50
2018-10-05T20:26:53.959Z,74.44
2018-10-05T20:29:22.242Z,75.33
2018-10-05T20:31:50.562Z,76.39
2018-10-05T20:34:18.841Z,76.23
2018-10-05T20:36:47.601Z,79.42
2018-10-05T20:39:15.737Z,74.08
2018-10-05T20:41:44.029Z,73.78
2018-10-05T20:44:12.316Z,75.39
2018-10-05T20:46:40.610Z,72.91
2018-10-05T20:49:08.878Z,71.75
2018-10-05T20:51:37.172Z,71.77
2018-10-05T20:54:05.484Z,71.05
2018-10-05T20:56:34.259Z,70.82
2018-10-05T20:59:02.551Z,72.28
2018-10-05T21:01:31.020Z,71.45
2018-10-05T21:03:59.318Z,71.53
2018-10-05T21:06:27.638Z,71.03
2018-10-05T21:08:55.915Z,70.47
2018-10-05T21:11:24.199Z,70.64
2018-10-05T21:13:52.455Z,70.13
2018-10-05T21:16:20.756Z,69.73
2018-10-05T21:18:49.023Z,69.64
2018-10-05T21:21:17.303Z,69.79
2018-10-05T21:23:45.575Z,69.98
2018-10-05T21:26:13.874Z,69.75
2018-10-05T21:28:42.350Z,70.13
2018-10-05T21:31:10.623Z,70.34
2018-10-05T21:33:38.900Z,69.74
2018-10-05T21:36:07.223Z,70.16
2018-10-05T21:38:35.541Z,70.41
2018-10-05T21:41:04.203Z,70.11
2018-10-05T21:43:32.477Z,69.91
2018-10-05T21:46:00.798Z,69.96
2018-10-05T21:48:29.239Z,70.03
2018-10-05T21:50:57.535Z,70.32
2018-10-05T21:53:25.852Z,70.40
2018-10-05T21:55:54.140Z,70.27
2018-10-05T21:58:22.413Z,70.44
2018-10-05T22:00:51.023Z,70.23
2018-10-05T22:03:19.293Z,70.52
2018-10-05T22:05:47.909Z,70.20
2018-10-05T22:08:16.300Z,70.00
2018-10-05T22:10:44.570Z,70.21
2018-10-05T22:13:12.866Z,70.31
2018-10-05T22:15:41.124Z,69.39
2018-10-05T22:18:09.441Z,70.09
2018-10-05T22:20:37.722Z,70.20
2018-10-05T22:23:06.040Z,70.14
2018-10-05T22:25:34.316Z,70.44
2018-10-05T22:28:02.607Z,70.80
2018-10-05T22:30:30.874Z,70.94
2018-10-05T22:32:59.174Z,71.39
2018-10-05T22:35:27.479Z,71.23
2018-10-05T22:37:56.522Z,71.91
2018-10-05T22:40:24.807Z,72.32
2018-10-05T22:42:53.111Z,72.00
2018-10-05T22:45:21.382Z,72.57
2018-10-05T22:47:49.680Z,72.33
2018-10-05T22:50:17.954Z,72.99
2018-10-05T22:52:46.251Z,72.78
2018-10-05T22:55:14.509Z,72.82
2018-10-05T22:57:42.824Z,73.48
2018-10-05T23:00:13.089Z,73.40
2018-10-05T23:02:41.866Z,73.45
2018-10-05T23:05:11.004Z,74.79
2018-10-05T23:07:39.551Z,74.73
2018-10-05T23:10:07.878Z,75.31
2018-10-05T23:12:36.484Z,75.88
2018-10-05T23:15:05.034Z,75.11
2018-10-05T23:17:34.482Z,76.33
2018-10-05T23:20:04.072Z,76.27
2018-10-05T23:22:33.618Z,77.04
2018-10-05T23:25:07.196Z,77.00
2018-10-05T23:27:35.538Z,77.42
2018-10-05T23:30:07.118Z,78.10
2018-10-05T23:32:37.859Z,77.65
2018-10-05T23:35:06.603Z,78.19
2018-10-05T23:37:34.883Z,78.96
2018-10-05T23:40:03.159Z,79.18
2018-10-05T23:42:31.750Z,79.68
2018-10-05T23:45:00.019Z,79.87
2018-10-05T23:47:28.323Z,79.48
2018-10-05T23:49:56.599Z,79.86
2018-10-05T23:52:41.147Z,80.23
2018-10-05T23:55:09.434Z,80.48
2018-10-05T23:57:38.343Z,80.26
